createdAt,value
2019-03-28T00:00:24.306Z,9.52
2019-03-28T00:02:53.009Z,9.31
2019-03-28T00:05:21.717Z,9.15
2019-03-28T00:07:59.106Z,9.14
2019-03-28T00:10:27.813Z,9.04
2019-03-28T00:12:56.824Z,8.52
2019-03-28T00:15:25.567Z,8.48
2019-03-28T00:17:54.278Z,8.48
2019-03-28T00:20:22.997Z,8.48
2019-03-28T00:22:56.788Z,8.51
2019-03-28T00:25:26.997Z,8.59
2019-03-28T00:27:55.705Z,8.52
2019-03-28T00:30:24.457Z,8.43
2019-03-28T00:32:53.173Z,8.36
2019-03-28T00:35:21.885Z,8.38
2019-03-28T00:37:55.967Z,8.37
2019-03-28T00:40:24.679Z,8.45
2019-03-28T00:42:53.392Z,8.41
2019-03-28T00:45:22.160Z,8.30
2019-03-28T00:47:50.866Z,8.28
2019-03-28T00:50:19.567Z,8.40
2019-03-28T00:52:48.308Z,8.40
2019-03-28T00:55:17.060Z,8.40
2019-03-28T00:57:45.728Z,8.35
2019-03-28T01:00:16.832Z,8.16
2019-03-28T01:02:46.059Z,8.16
2019-03-28T01:05:15.330Z,8.16
2019-03-28T01:07:44.086Z,8.09
2019-03-28T01:10:14.002Z,8.08
2019-03-28T01:12:42.731Z,7.97
2019-03-28T01:15:11.504Z,7.88
2019-03-28T01:17:40.210Z,7.82
2019-03-28T01:20:10.227Z,7.83
2019-03-28T01:22:40.155Z,7.70
2019-03-28T01:25:08.878Z,7.63
2019-03-28T01:27:37.594Z,7.70
2019-03-28T01:30:09.597Z,7.59
2019-03-28T01:32:38.313Z,7.58
2019-03-28T01:35:07.143Z,7.44
2019-03-28T01:37:35.925Z,7.52
2019-03-28T01:40:06.442Z,7.44
2019-03-28T01:42:35.147Z,7.37
2019-03-28T01:45:04.798Z,7.33
2019-03-28T01:47:33.501Z,7.35
2019-03-28T01:50:02.219Z,7.42
2019-03-28T01:52:30.971Z,7.48
2019-03-28T01:54:59.689Z,7.33
2019-03-28T01:57:28.388Z,7.32
2019-03-28T01:59:57.152Z,7.35
2019-03-28T02:02:25.861Z,7.38
2019-03-28T02:04:54.569Z,7.23
2019-03-28T02:07:23.320Z,7.14
2019-03-28T02:09:52.033Z,7.08
2019-03-28T02:12:20.733Z,7.11
2019-03-28T02:14:59.286Z,6.94
2019-03-28T02:17:27.995Z,7.01
2019-03-28T02:19:56.706Z,7.00
2019-03-28T02:22:25.454Z,6.96
2019-03-28T02:24:54.162Z,6.94
2019-03-28T02:27:24.394Z,6.94
2019-03-28T02:29:57.318Z,6.95
2019-03-28T02:32:26.019Z,6.90
2019-03-28T02:34:54.735Z,6.96
2019-03-28T02:37:23.596Z,6.92
2019-03-28T02:39:52.304Z,6.97
2019-03-28T02:42:21.010Z,6.87
2019-03-28T02:44:56.720Z,6.90
2019-03-28T02:47:25.421Z,6.90
2019-03-28T02:49:54.123Z,6.80
2019-03-28T02:52:22.881Z,6.85
2019-03-28T02:54:58.056Z,6.86
2019-03-28T02:57:40.165Z,6.88
2019-03-28T02:59:58.050Z,6.86
2019-03-28T03:02:26.768Z,6.79
2019-03-28T03:04:55.540Z,6.81
2019-03-28T03:07:24.292Z,6.80
2019-03-28T03:09:52.995Z,6.81
2019-03-28T03:12:21.714Z,6.89
2019-03-28T03:14:59.382Z,6.91
2019-03-28T03:17:28.091Z,6.98
2019-03-28T03:19:56.802Z,6.99
2019-03-28T03:22:25.547Z,7.14
2019-03-28T03:24:54.268Z,7.07
2019-03-28T03:27:22.967Z,7.12
2019-03-28T03:29:57.341Z,7.26
2019-03-28T03:32:26.059Z,7.29
2019-03-28T03:34:54.758Z,7.31
2019-03-28T03:37:23.536Z,7.45
2019-03-28T03:39:52.251Z,7.41
2019-03-28T03:42:20.949Z,7.30
2019-03-28T03:44:56.654Z,7.39
2019-03-28T03:47:25.365Z,7.39
2019-03-28T03:49:54.075Z,7.21
2019-03-28T03:52:22.840Z,7.26
2019-03-28T03:54:51.532Z,7.15
2019-03-28T03:57:20.238Z,7.22
2019-03-28T03:59:56.925Z,7.30
2019-03-28T04:02:25.631Z,7.19
2019-03-28T04:04:56.573Z,7.35
2019-03-28T04:07:24.825Z,7.38
2019-03-28T04:09:53.534Z,7.35
2019-03-28T04:12:22.239Z,7.19
2019-03-28T04:14:58.870Z,7.11
2019-03-28T04:17:27.572Z,7.16
2019-03-28T04:19:56.267Z,7.22
2019-03-28T04:22:25.031Z,7.07
2019-03-28T04:24:53.732Z,7.02
2019-03-28T04:27:22.440Z,7.00
2019-03-28T04:29:57.430Z,6.96
2019-03-28T04:32:26.132Z,6.87
2019-03-28T04:34:54.844Z,6.79
2019-03-28T04:37:23.596Z,6.82
2019-03-28T04:39:52.307Z,6.76
2019-03-28T04:42:21.012Z,6.69
2019-03-28T04:47:37.614Z,6.66
2019-03-28T04:50:07.379Z,6.65
2019-03-28T04:52:36.100Z,6.58
2019-03-28T04:55:06.304Z,6.52
2019-03-28T04:57:35.059Z,6.49
2019-03-28T05:00:04.262Z,6.45
2019-03-28T05:02:32.968Z,6.40
2019-03-28T05:05:01.713Z,6.47
2019-03-28T05:07:30.423Z,6.42
2019-03-28T05:09:59.127Z,6.48
2019-03-28T05:12:27.883Z,6.49
2019-03-28T05:14:56.602Z,6.43
2019-03-28T05:17:25.309Z,6.45
2019-03-28T05:20:00.020Z,6.46
2019-03-28T05:22:28.735Z,6.44
2019-03-28T05:24:57.428Z,6.50
2019-03-28T05:27:26.199Z,6.67
2019-03-28T05:29:54.909Z,6.62
2019-03-28T05:32:23.611Z,6.45
2019-03-28T05:34:58.897Z,6.50
2019-03-28T05:37:27.600Z,6.53
2019-03-28T05:39:56.306Z,6.61
2019-03-28T05:42:25.044Z,6.68
2019-03-28T05:44:53.739Z,6.76
2019-03-28T05:47:22.438Z,6.71
2019-03-28T05:49:59.600Z,6.65
2019-03-28T05:52:29.161Z,6.64
2019-03-28T05:54:57.966Z,6.63
2019-03-28T05:57:26.710Z,6.67
2019-03-28T05:59:55.415Z,6.85
2019-03-28T06:02:24.555Z,6.98
2019-03-28T06:04:58.782Z,7.00
2019-03-28T06:07:27.476Z,6.89
2019-03-28T06:09:56.179Z,6.99
2019-03-28T06:12:24.943Z,7.21
2019-03-28T06:14:53.641Z,7.12
2019-03-28T06:17:22.353Z,7.06
2019-03-28T06:19:57.659Z,7.04
2019-03-28T06:22:26.368Z,7.05
2019-03-28T06:24:55.076Z,7.30
2019-03-28T06:27:23.827Z,7.71
2019-03-28T06:29:52.693Z,7.90
2019-03-28T06:32:21.416Z,7.82
2019-03-28T06:34:56.798Z,7.66
2019-03-28T06:37:25.494Z,7.89
2019-03-28T06:39:54.207Z,7.83
2019-03-28T06:42:22.955Z,7.56
2019-03-28T06:44:51.657Z,7.73
2019-03-28T06:47:21.239Z,8.18
2019-03-28T06:49:57.552Z,8.37
2019-03-28T06:52:26.251Z,8.76
2019-03-28T06:54:54.950Z,8.43
2019-03-28T06:57:23.691Z,8.09
2019-03-28T06:59:52.390Z,8.03
2019-03-28T07:02:22.056Z,8.04
2019-03-28T07:04:57.650Z,8.35
2019-03-28T07:07:26.368Z,8.42
2019-03-28T07:09:55.064Z,8.81
2019-03-28T07:12:23.827Z,8.69
2019-03-28T07:14:52.535Z,8.87
2019-03-28T07:17:21.248Z,8.27
2019-03-28T07:19:57.486Z,8.46
2019-03-28T07:22:26.194Z,8.55
2019-03-28T07:24:57.435Z,8.29
2019-03-28T07:27:26.289Z,8.12
2019-03-28T07:29:54.999Z,8.00
2019-03-28T07:32:23.714Z,7.96
2019-03-28T07:34:57.551Z,8.29
2019-03-28T07:37:28.080Z,8.20
2019-03-28T07:39:56.735Z,8.06
2019-03-28T07:42:25.449Z,8.57
2019-03-28T07:44:58.183Z,8.89
2019-03-28T07:47:27.209Z,8.99
2019-03-28T07:49:58.870Z,8.57
2019-03-28T07:52:27.840Z,8.56
2019-03-28T07:54:56.569Z,8.33
2019-03-28T07:57:25.268Z,8.63
2019-03-28T08:00:04.105Z,8.40
2019-03-28T08:02:26.806Z,8.64
2019-03-28T08:04:55.517Z,8.86
2019-03-28T08:07:24.262Z,9.11
2019-03-28T08:09:52.965Z,9.07
2019-03-28T08:12:23.232Z,8.93
2019-03-28T08:14:59.583Z,9.07
2019-03-28T08:17:28.285Z,9.08
2019-03-28T08:19:57.038Z,9.33
2019-03-28T08:22:25.737Z,9.51
2019-03-28T08:24:54.453Z,9.42
2019-03-28T08:27:23.189Z,9.62
2019-03-28T08:29:51.908Z,9.73
2019-03-28T08:32:22.189Z,9.76
2019-03-28T08:34:59.509Z,9.79
2019-03-28T08:37:28.621Z,9.72
2019-03-28T08:39:57.342Z,9.87
2019-03-28T08:42:26.044Z,9.78
2019-03-28T08:44:56.996Z,9.60
2019-03-28T08:47:25.712Z,9.69
2019-03-28T08:49:58.909Z,10.00
2019-03-28T08:52:27.789Z,9.81
2019-03-28T08:54:56.888Z,9.88
2019-03-28T08:57:25.608Z,10.12
2019-03-28T08:59:57.103Z,10.36
2019-03-28T09:02:25.808Z,10.07
2019-03-28T09:04:57.848Z,10.27
2019-03-28T09:07:26.571Z,10.87
2019-03-28T09:09:55.289Z,10.95
2019-03-28T09:12:24.012Z,11.04
2019-03-28T09:14:52.804Z,11.19
2019-03-28T09:17:23.849Z,11.44
2019-03-28T09:19:52.008Z,11.86
2019-03-28T09:22:20.725Z,12.29
2019-03-28T09:24:56.830Z,12.77
2019-03-28T09:27:25.547Z,13.08
2019-03-28T09:29:56.826Z,13.00
2019-03-28T09:32:26.126Z,12.85
2019-03-28T09:34:54.839Z,12.87
2019-03-28T09:37:23.597Z,13.10
2019-03-28T09:39:52.315Z,13.33
2019-03-28T09:42:21.025Z,13.31
2019-03-28T09:44:57.097Z,13.33
2019-03-28T09:47:25.816Z,13.32
2019-03-28T09:49:57.978Z,13.29
2019-03-28T09:52:26.650Z,13.14
2019-03-28T09:54:55.357Z,13.25
2019-03-28T09:57:24.129Z,13.39
2019-03-28T09:59:52.842Z,13.29
2019-03-28T10:02:21.550Z,13.15
2019-03-28T10:04:56.949Z,12.99
2019-03-28T10:07:25.669Z,12.77
2019-03-28T10:09:57.568Z,12.69
2019-03-28T10:12:26.547Z,12.32
2019-03-28T10:14:55.267Z,11.95
2019-03-28T10:17:23.987Z,12.08
2019-03-28T10:19:52.697Z,12.05
2019-03-28T10:22:22.492Z,11.92
2019-03-28T10:24:51.561Z,11.98
2019-03-28T10:27:20.281Z,11.90
2019-03-28T10:29:49.012Z,11.82
2019-03-28T10:32:17.723Z,12.02
2019-03-28T10:34:46.482Z,11.92
2019-03-28T10:37:15.200Z,12.34
2019-03-28T10:39:43.934Z,12.25
2019-03-28T10:42:12.710Z,12.17
2019-03-28T10:44:41.418Z,12.57
2019-03-28T10:47:10.132Z,12.69
2019-03-28T10:49:38.907Z,12.72
2019-03-28T10:52:07.622Z,12.49
2019-03-28T10:54:36.330Z,12.37
2019-03-28T10:57:13.409Z,12.36
2019-03-28T10:59:35.527Z,12.41
2019-03-28T11:02:04.342Z,12.59
2019-03-28T11:04:33.095Z,12.56
2019-03-28T11:07:01.799Z,12.45
2019-03-28T11:09:30.510Z,12.34
2019-03-28T11:11:59.229Z,12.40
2019-03-28T11:14:27.944Z,12.57
2019-03-28T11:16:57.073Z,12.60
2019-03-28T11:19:25.842Z,12.67
2019-03-28T11:21:54.581Z,12.77
2019-03-28T11:24:23.299Z,12.90
2019-03-28T11:26:52.008Z,12.96
2019-03-28T11:29:20.798Z,13.00
2019-03-28T11:31:52.296Z,13.06
2019-03-28T11:34:20.051Z,13.06
2019-03-28T11:36:48.776Z,12.70
2019-03-28T11:39:17.494Z,12.49
2019-03-28T11:41:46.226Z,12.54
2019-03-28T11:44:14.954Z,12.78
2019-03-28T11:46:43.726Z,12.82
2019-03-28T11:49:12.453Z,12.84
2019-03-28T11:51:41.164Z,13.10
2019-03-28T11:54:09.914Z,13.31
2019-03-28T11:56:38.633Z,13.29
2019-03-28T11:59:07.347Z,13.58
2019-03-28T12:01:36.067Z,13.41
2019-03-28T12:04:04.795Z,13.09
2019-03-28T12:06:33.576Z,12.78
2019-03-28T12:09:02.366Z,12.69
2019-03-28T12:11:31.100Z,12.69
2019-03-28T12:13:59.904Z,12.83
2019-03-28T12:16:28.637Z,12.99
2019-03-28T12:18:57.404Z,13.46
2019-03-28T12:21:26.107Z,13.47
2019-03-28T12:23:54.817Z,13.88
2019-03-28T12:26:23.541Z,14.14
2019-03-28T12:28:52.258Z,14.32
2019-03-28T12:31:21.048Z,14.38
2019-03-28T12:33:49.772Z,14.27
2019-03-28T12:36:18.839Z,14.29
2019-03-28T12:38:47.932Z,14.49
2019-03-28T12:41:16.660Z,14.95
2019-03-28T12:43:45.370Z,14.94
2019-03-28T12:46:14.085Z,15.14
2019-03-28T12:48:42.806Z,15.42
2019-03-28T12:51:11.575Z,15.70
2019-03-28T12:53:40.286Z,15.95
2019-03-28T12:56:08.993Z,15.76
2019-03-28T12:58:37.717Z,15.52
2019-03-28T13:01:06.425Z,15.50
2019-03-28T13:03:45.441Z,15.47
2019-03-28T13:06:05.661Z,15.50
2019-03-28T13:08:34.379Z,15.16
2019-03-28T13:11:03.146Z,14.90
2019-03-28T13:13:31.859Z,14.71
2019-03-28T13:16:00.989Z,14.29
2019-03-28T13:18:29.718Z,13.94
2019-03-28T13:21:12.419Z,13.90
2019-03-28T13:23:28.911Z,13.67
2019-03-28T13:25:57.639Z,13.67
2019-03-28T13:28:26.368Z,13.75
2019-03-28T13:31:00.669Z,13.67
2019-03-28T13:33:29.373Z,13.63
2019-03-28T13:35:58.086Z,13.95
2019-03-28T13:38:26.805Z,13.65
2019-03-28T13:40:55.523Z,13.78
2019-03-28T13:43:24.270Z,13.42
2019-03-28T13:45:53.011Z,13.33
2019-03-28T13:48:21.738Z,12.99
2019-03-28T13:53:38.649Z,13.42
2019-03-28T13:55:59.610Z,13.66
2019-03-28T13:58:28.345Z,13.56
2019-03-28T14:00:57.055Z,13.39
2019-03-28T14:03:25.830Z,13.22
2019-03-28T14:05:54.570Z,13.38
2019-03-28T14:08:23.343Z,13.23
2019-03-28T14:10:52.073Z,12.81
2019-03-28T14:13:21.535Z,12.66
2019-03-28T14:15:58.263Z,12.55
2019-03-28T14:18:27.121Z,12.27
2019-03-28T14:20:55.835Z,12.37
2019-03-28T14:23:24.567Z,12.51
2019-03-28T14:25:53.290Z,12.78
2019-03-28T14:28:22.052Z,12.83
2019-03-28T14:30:50.775Z,12.90
2019-03-28T14:33:19.502Z,12.87
2019-03-28T14:35:48.226Z,13.00
2019-03-28T14:38:16.966Z,13.08
2019-03-28T14:40:45.745Z,13.04
2019-03-28T14:43:14.463Z,12.87
2019-03-28T14:45:43.177Z,12.83
2019-03-28T14:48:11.900Z,12.45
2019-03-28T14:50:41.371Z,12.38
2019-03-28T14:53:10.111Z,12.47
2019-03-28T14:55:38.887Z,12.57
2019-03-28T14:58:07.996Z,12.44
2019-03-28T15:01:00.040Z,12.32
2019-03-28T15:03:28.752Z,12.26
2019-03-28T15:05:58.594Z,12.24
2019-03-28T15:08:27.397Z,12.57
2019-03-28T15:10:56.117Z,12.41
2019-03-28T15:13:24.845Z,12.36
2019-03-28T15:15:53.556Z,12.16
2019-03-28T15:18:22.259Z,12.35
2019-03-28T15:20:57.296Z,12.49
2019-03-28T15:23:26.008Z,12.52
2019-03-28T15:25:54.721Z,12.49
2019-03-28T15:28:23.476Z,12.36
2019-03-28T15:30:52.256Z,12.41
2019-03-28T15:33:20.960Z,12.42
2019-03-28T15:35:56.538Z,12.25
2019-03-28T15:38:25.250Z,12.33
2019-03-28T15:40:57.257Z,12.23
2019-03-28T15:43:25.979Z,12.18
2019-03-28T15:45:54.692Z,12.07
2019-03-28T15:48:23.406Z,12.16
2019-03-28T15:50:52.147Z,12.07
2019-03-28T15:53:20.925Z,12.05
2019-03-28T15:55:49.635Z,11.81
2019-03-28T15:58:23.439Z,11.71
2019-03-28T16:00:48.786Z,11.73
2019-03-28T16:03:17.503Z,11.65
2019-03-28T16:05:57.559Z,11.58
2019-03-28T16:08:16.698Z,11.46
2019-03-28T16:10:45.410Z,11.36
2019-03-28T16:13:14.186Z,11.33
2019-03-28T16:15:42.917Z,11.34
2019-03-28T16:18:11.707Z,11.45
2019-03-28T16:20:40.440Z,11.55
2019-03-28T16:23:09.164Z,11.58
2019-03-28T16:25:37.948Z,11.57
2019-03-28T16:28:06.674Z,11.54
2019-03-28T16:30:37.489Z,11.47
2019-03-28T16:33:06.539Z,11.40
2019-03-28T16:35:35.248Z,11.35
2019-03-28T16:38:03.976Z,11.26
2019-03-28T16:40:32.697Z,11.18
2019-03-28T16:43:01.425Z,11.21
2019-03-28T16:45:30.197Z,11.04
2019-03-28T16:47:58.951Z,10.68
2019-03-28T16:50:27.668Z,10.52
2019-03-28T16:52:57.312Z,10.17
2019-03-28T16:55:26.869Z,9.81
2019-03-28T16:57:59.953Z,9.66
2019-03-28T17:00:36.735Z,9.45
2019-03-28T17:03:06.087Z,9.32
2019-03-28T17:05:34.914Z,9.17
2019-03-28T17:08:04.617Z,9.02
2019-03-28T17:10:44.406Z,8.82
2019-03-28T17:13:13.216Z,8.77
2019-03-28T17:15:41.968Z,8.58
2019-03-28T17:18:10.675Z,8.43
2019-03-28T17:20:39.389Z,8.27
2019-03-28T17:23:08.139Z,8.23
2019-03-28T17:25:36.853Z,8.10
2019-03-28T17:28:05.579Z,8.00
2019-03-28T17:30:34.300Z,7.85
2019-03-28T17:33:03.010Z,7.82
2019-03-28T17:35:31.762Z,7.75
2019-03-28T17:38:00.472Z,7.76
2019-03-28T17:40:29.180Z,7.66
2019-03-28T17:42:58.226Z,7.56
2019-03-28T17:45:26.940Z,7.54
2019-03-28T17:47:55.639Z,7.56
2019-03-28T17:50:24.349Z,7.51
2019-03-28T17:52:53.664Z,7.40
2019-03-28T17:55:22.606Z,7.40
2019-03-28T17:57:58.922Z,7.37
2019-03-28T18:00:28.305Z,7.33
2019-03-28T18:03:08.386Z,7.28
2019-03-28T18:05:27.431Z,7.26
2019-03-28T18:07:58.137Z,7.21
2019-03-28T18:10:26.844Z,7.23
2019-03-28T18:13:00.723Z,7.18
2019-03-28T18:15:29.417Z,7.19
2019-03-28T18:17:58.125Z,7.18
2019-03-28T18:20:26.839Z,7.20
2019-03-28T18:22:55.564Z,7.14
2019-03-28T18:25:24.378Z,7.15
2019-03-28T18:27:53.039Z,7.09
2019-03-28T18:30:22.247Z,7.10
2019-03-28T18:32:55.746Z,7.08
2019-03-28T18:35:24.445Z,7.00
2019-03-28T18:37:53.162Z,6.98
2019-03-28T18:40:21.886Z,7.03
2019-03-28T18:42:50.583Z,7.00
2019-03-28T18:45:19.436Z,7.01
2019-03-28T18:47:48.151Z,6.90
2019-03-28T18:50:17.074Z,6.88
2019-03-28T18:52:45.820Z,6.87
2019-03-28T18:55:15.326Z,6.89
2019-03-28T18:57:44.042Z,6.90
2019-03-28T19:00:13.586Z,6.89
2019-03-28T19:02:42.289Z,6.86
2019-03-28T19:05:19.800Z,6.80
2019-03-28T19:07:41.946Z,6.84
2019-03-28T19:10:11.242Z,6.89
2019-03-28T19:12:40.679Z,6.90
2019-03-28T19:15:10.386Z,7.02
2019-03-28T19:17:39.098Z,7.07
2019-03-28T19:20:10.041Z,7.18
2019-03-28T19:22:39.036Z,7.20
2019-03-28T19:25:09.530Z,7.27
2019-03-28T19:27:38.749Z,7.35
2019-03-28T19:30:09.458Z,7.36
2019-03-28T19:32:38.160Z,7.48
2019-03-28T19:35:09.285Z,7.47
2019-03-28T19:37:38.590Z,7.44
2019-03-28T19:40:09.150Z,7.44
2019-03-28T19:42:38.498Z,7.46
2019-03-28T19:45:07.505Z,7.35
2019-03-28T19:47:36.244Z,7.32
2019-03-28T19:50:07.989Z,7.26
2019-03-28T19:52:36.842Z,7.15
2019-03-28T19:55:07.352Z,7.23
2019-03-28T19:57:36.063Z,7.19
2019-03-28T20:00:07.635Z,6.85
2019-03-28T20:02:36.335Z,6.86
2019-03-28T20:05:07.410Z,6.84
2019-03-28T20:07:36.131Z,6.78
2019-03-28T20:10:15.790Z,6.71
2019-03-28T20:12:36.002Z,6.65
2019-03-28T20:15:08.038Z,6.77
2019-03-28T20:17:37.188Z,6.99
2019-03-28T20:20:07.107Z,7.00
2019-03-28T20:22:35.813Z,6.97
2019-03-28T20:25:07.034Z,6.89
2019-03-28T20:27:35.952Z,6.72
2019-03-28T20:30:06.162Z,6.59
2019-03-28T20:32:34.880Z,6.35
2019-03-28T20:35:03.686Z,6.31
2019-03-28T20:37:32.441Z,6.22
2019-03-28T20:40:01.149Z,6.25
2019-03-28T20:42:29.856Z,6.25
2019-03-28T20:44:59.501Z,6.25
2019-03-28T20:47:28.208Z,6.31
2019-03-28T20:50:01.470Z,6.28
2019-03-28T20:52:30.438Z,6.27
2019-03-28T20:54:59.737Z,6.31
2019-03-28T20:57:28.787Z,6.26
2019-03-28T20:59:58.531Z,6.37
2019-03-28T21:02:28.079Z,6.41
2019-03-28T21:04:56.791Z,6.35
2019-03-28T21:07:25.509Z,6.37
2019-03-28T21:09:57.483Z,6.24
2019-03-28T21:12:26.194Z,6.25
2019-03-28T21:14:58.364Z,6.12
2019-03-28T21:17:27.076Z,6.09
2019-03-28T21:19:55.785Z,6.10
2019-03-28T21:22:24.500Z,6.01
2019-03-28T21:24:53.212Z,5.85
2019-03-28T21:27:22.042Z,5.80
2019-03-28T21:29:51.103Z,5.80
2019-03-28T21:32:20.139Z,5.81
2019-03-28T21:34:48.856Z,5.80
2019-03-28T21:37:17.563Z,5.56
2019-03-28T21:39:46.313Z,5.35
2019-03-28T21:42:15.026Z,5.49
2019-03-28T21:44:43.734Z,5.56
2019-03-28T21:47:12.451Z,5.58
2019-03-28T21:49:41.152Z,5.61
2019-03-28T21:52:09.917Z,5.53
2019-03-28T21:54:38.629Z,5.28
2019-03-28T21:57:07.367Z,5.09
2019-03-28T21:59:36.093Z,5.10
2019-03-28T22:02:04.801Z,4.94
2019-03-28T22:04:33.505Z,4.94
2019-03-28T22:07:02.260Z,4.86
2019-03-28T22:09:30.962Z,4.82
2019-03-28T22:12:00.897Z,4.82
2019-03-28T22:14:30.020Z,4.67
2019-03-28T22:16:58.752Z,4.67
2019-03-28T22:19:27.452Z,4.72
2019-03-28T22:21:57.638Z,4.76
2019-03-28T22:24:26.350Z,4.74
2019-03-28T22:26:55.061Z,4.65
2019-03-28T22:29:23.804Z,4.63
2019-03-28T22:31:52.514Z,4.51
2019-03-28T22:34:21.317Z,4.50
2019-03-28T22:36:59.934Z,4.66
2019-03-28T22:39:28.634Z,4.73
2019-03-28T22:41:57.352Z,4.70
2019-03-28T22:44:26.075Z,4.73
2019-03-28T22:46:54.778Z,4.78
2019-03-28T22:49:23.550Z,4.74
2019-03-28T22:51:52.257Z,4.55
2019-03-28T22:54:20.957Z,4.31
2019-03-28T22:56:50.014Z,4.24
2019-03-28T22:59:18.889Z,4.16
2019-03-28T23:01:47.588Z,4.07
2019-03-28T23:04:16.453Z,4.14
2019-03-28T23:06:45.161Z,4.08
2019-03-28T23:09:13.908Z,4.14
2019-03-28T23:11:42.763Z,4.23
2019-03-28T23:14:11.501Z,4.28
2019-03-28T23:16:40.248Z,4.32
2019-03-28T23:19:11.879Z,4.33
2019-03-28T23:21:39.371Z,4.23
2019-03-28T23:24:08.078Z,4.16
2019-03-28T23:26:36.786Z,4.17
2019-03-28T23:29:05.529Z,4.19
2019-03-28T23:31:34.236Z,4.27
2019-03-28T23:34:02.945Z,4.25
2019-03-28T23:36:32.778Z,4.20
2019-03-28T23:39:01.560Z,4.23
2019-03-28T23:41:30.308Z,4.26
2019-03-28T23:43:59.019Z,4.28
2019-03-28T23:46:27.726Z,4.20
2019-03-28T23:48:57.661Z,4.13
2019-03-28T23:51:26.363Z,4.14
2019-03-28T23:53:58.300Z,4.06
2019-03-28T23:56:27.036Z,3.88
2019-03-28T23:58:55.752Z,3.85
